Time;durP1;ratioP1;P1;durP2;ratioP2;P2;SDS_P1;SDS_P2;PMS_P1;PMS_P2;Temp;Humidity;BMP_temperature;BMP_pressure;BME280_temperature;BME280_humidity;BME280_pressure;Samples;Min_cycle;Max_cycle;Signal;HPM_P1;HPM_P2
2022/10/12 00:02:03;;;;;;;47.00;31.77;;;;;;;;;;5043750;28;20036;-58
2022/10/12 00:04:29;;;;;;;51.50;32.80;;;;;;;;;;5031037;28;20411;-56
2022/10/12 00:06:55;;;;;;;40.30;31.13;;;;;;;;;;5047494;28;20025;-56
2022/10/12 00:09:21;;;;;;;44.58;27.85;;;;;;;;;;5038598;28;20517;-58
2022/10/12 00:11:47;;;;;;;43.28;31.30;;;;;;;;;;5029807;28;20123;-56
2022/10/12 00:14:13;;;;;;;44.60;31.45;;;;;;;;;;5031108;28;20087;-58
2022/10/12 00:16:39;;;;;;;40.95;31.25;;;;;;;;;;5036101;28;20037;-58
2022/10/12 00:19:05;;;;;;;41.65;30.08;;;;;;;;;;5043331;28;20044;-58
2022/10/12 00:21:31;;;;;;;41.88;30.02;;;;;;;;;;5051181;28;20034;-58
2022/10/12 00:24:01;;;;;;;44.67;30.25;;;;;;;;;;5050629;28;20112;-58
2022/10/12 00:26:28;;;;;;;44.72;31.88;;;;;;;;;;5050420;28;20021;-58
2022/10/12 00:28:56;;;;;;;42.25;30.23;;;;;;;;;;5042424;28;20499;-58
2022/10/12 00:31:22;;;;;;;47.47;32.25;;;;;;;;;;5030928;28;20041;-57
2022/10/12 00:33:48;;;;;;;40.95;30.67;;;;;;;;;;5033972;28;20034;-58
2022/10/12 00:36:15;;;;;;;41.58;29.60;;;;;;;;;;5036564;28;20021;-58
2022/10/12 00:38:41;;;;;;;40.70;27.30;;;;;;;;;;5049789;28;20044;-57
2022/10/12 00:41:07;;;;;;;53.30;30.13;;;;;;;;;;5034263;28;20026;-58
2022/10/12 00:43:36;;;;;;;42.13;30.45;;;;;;;;;;5041640;28;20029;-58
2022/10/12 00:46:04;;;;;;;41.03;30.58;;;;;;;;;;5053754;28;20029;-57
2022/10/12 00:48:30;;;;;;;41.17;29.00;;;;;;;;;;5047812;28;20121;-58
2022/10/12 00:50:58;;;;;;;40.90;30.02;;;;;;;;;;5036965;28;20526;-58
2022/10/12 00:53:26;;;;;;;41.05;28.15;;;;;;;;;;5036621;28;20533;-58
2022/10/12 00:55:57;;;;;;;49.00;30.58;;;;;;;;;;5032697;28;20509;-58
2022/10/12 00:58:23;;;;;;;40.97;30.52;;;;;;;;;;5039916;28;20052;-57
2022/10/12 01:00:50;;;;;;;41.08;29.17;;;;;;;;;;5042216;28;20032;-58
2022/10/12 01:03:17;;;;;;;44.53;32.00;;;;;;;;;;5047813;28;20033;-57
2022/10/12 01:05:43;;;;;;;45.50;33.22;;;;;;;;;;5033811;28;20049;-58
2022/10/12 01:08:09;;;;;;;50.55;32.75;;;;;;;;;;5049473;28;20086;-56
2022/10/12 01:10:35;;;;;;;48.28;33.40;;;;;;;;;;5041240;28;20029;-57
2022/10/12 01:13:01;;;;;;;42.05;30.65;;;;;;;;;;5038568;28;20138;-58
2022/10/12 01:15:30;;;;;;;51.45;32.78;;;;;;;;;;5053173;28;20035;-58
2022/10/12 01:18:06;;;;;;;46.22;32.08;;;;;;;;;;5041730;28;20112;-58
2022/10/12 01:20:36;;;;;;;50.03;34.15;;;;;;;;;;5042088;28;20083;-58
2022/10/12 01:23:02;;;;;;;47.88;33.33;;;;;;;;;;5036719;28;20088;-58
2022/10/12 01:25:34;;;;;;;52.97;37.45;;;;;;;;;;5033409;28;20017;-58
2022/10/12 01:28:05;;;;;;;46.42;34.83;;;;;;;;;;5033562;28;20014;-58
2022/10/12 01:30:37;;;;;;;48.70;32.33;;;;;;;;;;5041065;28;20091;-58
2022/10/12 01:33:10;;;;;;;47.40;32.70;;;;;;;;;;5034402;28;20029;-58
2022/10/12 01:36:00;;;;;;;49.90;32.97;;;;;;;;;;5033289;28;20025;-58
2022/10/12 01:38:32;;;;;;;47.22;35.00;;;;;;;;;;5005593;28;20044;-58
2022/10/12 01:40:58;;;;;;;48.95;36.60;;;;;;;;;;5045776;28;20029;-58
2022/10/12 01:43:32;;;;;;;60.92;39.83;;;;;;;;;;5052651;28;20397;-58
2022/10/12 01:46:03;;;;;;;49.30;34.45;;;;;;;;;;5052790;28;20115;-58
2022/10/12 01:48:29;;;;;;;42.55;31.58;;;;;;;;;;5050131;28;20029;-57
2022/10/12 01:51:00;;;;;;;50.00;33.72;;;;;;;;;;5036617;28;20182;-58
2022/10/12 01:53:41;;;;;;;44.58;31.63;;;;;;;;;;5041712;28;20029;-57
2022/10/12 01:56:15;;;;;;;48.42;32.42;;;;;;;;;;5052492;28;20033;-56
2022/10/12 01:58:47;;;;;;;47.83;32.80;;;;;;;;;;5049894;28;20040;-58
2022/10/12 02:01:21;;;;;;;46.58;33.80;;;;;;;;;;5032710;28;20499;-57
2022/10/12 02:03:49;;;;;;;47.70;31.88;;;;;;;;;;5037522;28;20070;-58
2022/10/12 02:06:17;;;;;;;48.13;32.38;;;;;;;;;;5049267;28;20468;-58
2022/10/12 02:08:43;;;;;;;43.72;31.40;;;;;;;;;;5042278;28;20022;-56
2022/10/12 02:11:11;;;;;;;48.88;34.72;;;;;;;;;;5047180;28;20541;-58
2022/10/12 02:13:57;;;;;;;53.00;36.00;;;;;;;;;;5038001;28;20029;-57
2022/10/12 02:16:33;;;;;;;50.97;33.17;;;;;;;;;;5048956;28;20419;-57
2022/10/12 02:18:59;;;;;;;46.78;31.85;;;;;;;;;;5046851;28;20021;-57
2022/10/12 02:21:29;;;;;;;41.97;32.22;;;;;;;;;;5057106;28;20024;-57
2022/10/12 02:23:57;;;;;;;40.53;30.70;;;;;;;;;;5072276;28;20020;-57
2022/10/12 02:26:23;;;;;;;43.17;31.00;;;;;;;;;;5041909;28;20038;-57
2022/10/12 02:28:50;;;;;;;41.20;31.03;;;;;;;;;;5051991;28;20031;-58
2022/10/12 02:31:32;;;;;;;40.75;29.92;;;;;;;;;;5048132;28;20029;-58
2022/10/12 02:34:08;;;;;;;46.58;31.67;;;;;;;;;;5042087;28;20029;-57
2022/10/12 02:36:42;;;;;;;41.17;31.20;;;;;;;;;;5050061;28;20688;-58
2022/10/12 02:39:12;;;;;;;44.90;31.60;;;;;;;;;;5035417;28;20030;-58
2022/10/12 02:41:42;;;;;;;35.53;27.73;;;;;;;;;;5044037;28;20483;-57
2022/10/12 02:44:10;;;;;;;40.22;29.98;;;;;;;;;;5036715;28;20033;-56
2022/10/12 02:46:37;;;;;;;46.20;31.15;;;;;;;;;;5072030;23;20439;-53
2022/10/12 02:49:04;;;;;;;47.97;32.95;;;;;;;;;;5050711;28;20025;-56
2022/10/12 02:51:30;;;;;;;51.85;30.40;;;;;;;;;;5048625;28;20036;-56
2022/10/12 02:53:56;;;;;;;46.13;31.70;;;;;;;;;;5051373;28;20032;-52
2022/10/12 02:56:23;;;;;;;44.17;30.10;;;;;;;;;;5037509;28;20033;-52
2022/10/12 02:58:49;;;;;;;40.20;29.55;;;;;;;;;;5031780;28;20046;-54
2022/10/12 03:01:15;;;;;;;44.63;31.58;;;;;;;;;;5030747;28;20033;-55
2022/10/12 03:03:42;;;;;;;43.60;30.05;;;;;;;;;;5030839;28;20467;-54
2022/10/12 03:06:08;;;;;;;40.33;29.52;;;;;;;;;;5031615;28;20032;-54
2022/10/12 03:08:34;;;;;;;47.95;31.17;;;;;;;;;;5031616;28;20029;-51
2022/10/12 03:11:04;;;;;;;40.83;28.73;;;;;;;;;;5030575;28;20036;-54
2022/10/12 03:13:30;;;;;;;47.50;31.60;;;;;;;;;;5029802;28;20033;-52
2022/10/12 03:16:07;;;;;;;47.03;31.00;;;;;;;;;;5031515;28;20111;-56
2022/10/12 03:18:33;;;;;;;44.75;31.75;;;;;;;;;;5024097;28;20029;-53
2022/10/12 03:20:59;;;;;;;45.42;32.30;;;;;;;;;;5011932;28;20030;-51
2022/10/12 03:23:26;;;;;;;40.40;29.85;;;;;;;;;;5027908;28;20047;-54
2022/10/12 03:25:52;;;;;;;37.43;30.10;;;;;;;;;;5030992;28;20025;-52
2022/10/12 03:28:18;;;;;;;45.92;29.00;;;;;;;;;;5030987;28;20339;-55
2022/10/12 03:30:45;;;;;;;45.87;29.27;;;;;;;;;;5030753;28;20512;-54
2022/10/12 03:33:11;;;;;;;41.28;29.95;;;;;;;;;;5031249;28;20029;-53
2022/10/12 03:35:37;;;;;;;37.10;27.90;;;;;;;;;;5031459;28;20447;-51
2022/10/12 03:38:03;;;;;;;42.92;28.30;;;;;;;;;;5030610;28;20056;-52
2022/10/12 03:40:29;;;;;;;39.65;25.83;;;;;;;;;;5031348;28;20061;-53
2022/10/12 03:42:55;;;;;;;39.72;28.63;;;;;;;;;;5030562;28;20025;-51
2022/10/12 03:45:22;;;;;;;41.50;29.08;;;;;;;;;;5030803;28;20022;-51
2022/10/12 03:47:48;;;;;;;43.55;29.67;;;;;;;;;;5031435;28;20655;-51
2022/10/12 03:50:14;;;;;;;42.35;29.05;;;;;;;;;;5031119;28;20381;-56
2022/10/12 03:52:40;;;;;;;47.40;26.85;;;;;;;;;;5030308;28;20400;-52
2022/10/12 03:55:06;;;;;;;46.17;29.65;;;;;;;;;;5030714;28;20038;-53
2022/10/12 03:57:32;;;;;;;46.05;29.63;;;;;;;;;;5031231;28;20072;-57
2022/10/12 03:59:58;;;;;;;41.38;28.52;;;;;;;;;;5031017;28;20034;-58
2022/10/12 04:02:24;;;;;;;41.33;30.05;;;;;;;;;;5030855;28;20013;-56
2022/10/12 04:04:50;;;;;;;39.60;29.50;;;;;;;;;;5031154;28;20025;-55
2022/10/12 04:07:16;;;;;;;42.03;27.60;;;;;;;;;;5031947;28;20205;-58
2022/10/12 04:09:42;;;;;;;40.40;27.10;;;;;;;;;;5034925;28;20092;-55
2022/10/12 04:12:08;;;;;;;39.47;27.30;;;;;;;;;;5034962;28;20495;-56
2022/10/12 04:14:34;;;;;;;37.85;26.50;;;;;;;;;;5034780;28;20030;-57
2022/10/12 04:17:00;;;;;;;40.63;30.15;;;;;;;;;;5034857;28;20049;-58
2022/10/12 04:19:26;;;;;;;42.15;30.80;;;;;;;;;;5033382;28;20028;-56
2022/10/12 04:21:52;;;;;;;42.33;30.15;;;;;;;;;;5034623;28;20038;-58
2022/10/12 04:24:19;;;;;;;49.83;32.80;;;;;;;;;;5034729;28;20108;-53
2022/10/12 04:26:45;;;;;;;41.08;31.73;;;;;;;;;;5034594;28;20018;-54
2022/10/12 04:29:12;;;;;;;50.38;32.15;;;;;;;;;;5034722;28;20082;-55
2022/10/12 04:31:38;;;;;;;51.30;31.88;;;;;;;;;;5034655;28;20029;-53
2022/10/12 04:34:04;;;;;;;49.08;31.65;;;;;;;;;;5034634;28;20094;-55
2022/10/12 04:36:30;;;;;;;49.70;31.55;;;;;;;;;;5034385;28;20030;-55
2022/10/12 04:38:56;;;;;;;58.05;34.10;;;;;;;;;;5034601;28;20029;-52
2022/10/12 04:41:22;;;;;;;56.47;35.50;;;;;;;;;;5034724;28;20048;-58
2022/10/12 04:43:49;;;;;;;43.17;31.50;;;;;;;;;;5034565;28;20359;-57
2022/10/12 04:46:15;;;;;;;39.28;30.52;;;;;;;;;;5034375;28;20038;-55
2022/10/12 04:48:41;;;;;;;44.30;30.90;;;;;;;;;;5034658;28;20026;-56
2022/10/12 04:51:07;;;;;;;45.78;31.25;;;;;;;;;;5034252;28;20036;-58
2022/10/12 04:53:33;;;;;;;42.92;30.33;;;;;;;;;;5034254;28;20029;-56
2022/10/12 04:56:01;;;;;;;44.33;30.67;;;;;;;;;;5034069;28;20084;-57
2022/10/12 04:58:27;;;;;;;46.80;33.03;;;;;;;;;;5033893;28;20061;-57
2022/10/12 05:00:53;;;;;;;51.80;33.25;;;;;;;;;;5034066;28;20025;-58
2022/10/12 05:03:19;;;;;;;46.10;32.15;;;;;;;;;;5033996;28;20029;-58
2022/10/12 05:05:45;;;;;;;43.60;30.20;;;;;;;;;;5033736;28;20030;-58
2022/10/12 05:08:12;;;;;;;42.05;30.23;;;;;;;;;;5032562;28;20029;-58
2022/10/12 05:10:38;;;;;;;49.22;29.77;;;;;;;;;;5033977;28;20509;-56
2022/10/12 05:13:04;;;;;;;39.97;29.00;;;;;;;;;;5033757;28;20411;-55
2022/10/12 05:15:30;;;;;;;40.75;28.75;;;;;;;;;;5033675;28;20034;-55
2022/10/12 05:17:56;;;;;;;53.28;32.22;;;;;;;;;;5031989;28;20483;-57
2022/10/12 05:20:22;;;;;;;43.35;29.90;;;;;;;;;;5033424;28;20037;-56
2022/10/12 05:22:48;;;;;;;48.25;31.73;;;;;;;;;;5033698;28;20057;-59
2022/10/12 05:25:14;;;;;;;45.03;30.55;;;;;;;;;;5033562;28;20065;-58
2022/10/12 05:27:40;;;;;;;46.05;29.55;;;;;;;;;;5032260;28;20022;-58
2022/10/12 05:30:07;;;;;;;42.72;29.50;;;;;;;;;;5033388;28;20385;-58
2022/10/12 05:32:33;;;;;;;45.00;27.43;;;;;;;;;;5033486;28;20045;-55
2022/10/12 05:34:59;;;;;;;50.45;29.50;;;;;;;;;;5033524;28;20029;-59
2022/10/12 05:37:25;;;;;;;41.38;27.58;;;;;;;;;;5033388;28;20116;-57
2022/10/12 05:39:51;;;;;;;44.67;28.55;;;;;;;;;;5033118;28;20074;-58
2022/10/12 05:42:17;;;;;;;39.40;27.35;;;;;;;;;;5033355;28;20475;-59
2022/10/12 05:44:43;;;;;;;36.53;26.70;;;;;;;;;;5033302;28;20069;-58
2022/10/12 05:47:09;;;;;;;39.75;28.77;;;;;;;;;;5033012;28;20033;-57
2022/10/12 05:49:35;;;;;;;40.45;28.65;;;;;;;;;;5033180;28;20056;-58
2022/10/12 05:52:01;;;;;;;41.25;31.10;;;;;;;;;;5033145;28;20025;-54
2022/10/12 05:54:27;;;;;;;50.13;31.15;;;;;;;;;;5033044;28;20083;-55
2022/10/12 05:56:53;;;;;;;46.42;30.33;;;;;;;;;;5032844;28;20100;-56
2022/10/12 05:59:20;;;;;;;41.58;29.63;;;;;;;;;;5032872;28;20031;-56
2022/10/12 06:01:46;;;;;;;40.15;29.73;;;;;;;;;;5032830;28;20391;-58
2022/10/12 06:04:12;;;;;;;49.83;31.27;;;;;;;;;;5032891;28;20094;-60
2022/10/12 06:06:38;;;;;;;43.55;29.90;;;;;;;;;;5032723;28;20026;-58
2022/10/12 06:09:05;;;;;;;44.47;29.58;;;;;;;;;;5032629;28;20104;-60
2022/10/12 06:11:31;;;;;;;44.58;28.20;;;;;;;;;;5032712;28;20028;-58
2022/10/12 06:13:57;;;;;;;43.43;30.40;;;;;;;;;;5031420;28;20034;-55
2022/10/12 06:16:23;;;;;;;39.70;29.15;;;;;;;;;;5032462;28;20340;-56
2022/10/12 06:18:49;;;;;;;45.78;30.17;;;;;;;;;;5032359;28;20108;-55
2022/10/12 06:21:15;;;;;;;38.70;28.45;;;;;;;;;;5032660;28;20029;-54
2022/10/12 06:23:41;;;;;;;40.95;27.02;;;;;;;;;;5032404;28;20018;-57
2022/10/12 06:26:07;;;;;;;38.92;26.80;;;;;;;;;;5032292;28;20033;-56
2022/10/12 06:28:33;;;;;;;41.15;28.27;;;;;;;;;;5032244;28;20021;-54
2022/10/12 06:30:59;;;;;;;42.22;29.25;;;;;;;;;;5031607;28;20029;-56
2022/10/12 06:33:26;;;;;;;47.85;28.83;;;;;;;;;;5032306;28;20030;-52
2022/10/12 06:35:53;;;;;;;43.58;29.52;;;;;;;;;;5032260;28;20029;-53
2022/10/12 06:38:19;;;;;;;39.90;27.90;;;;;;;;;;5032018;28;20561;-53
2022/10/12 06:40:45;;;;;;;44.95;29.83;;;;;;;;;;5032123;28;20389;-55
2022/10/12 06:43:11;;;;;;;41.10;29.20;;;;;;;;;;5032223;28;20455;-54
2022/10/12 06:45:37;;;;;;;45.63;28.38;;;;;;;;;;5031890;28;20030;-57
2022/10/12 06:48:05;;;;;;;45.55;28.70;;;;;;;;;;5032031;28;20061;-57
2022/10/12 06:50:31;;;;;;;48.92;30.05;;;;;;;;;;5032054;28;20036;-54
2022/10/12 06:52:57;;;;;;;39.25;29.95;;;;;;;;;;5031931;28;20099;-55
2022/10/12 06:55:23;;;;;;;39.72;29.85;;;;;;;;;;5031893;28;20032;-57
2022/10/12 06:57:49;;;;;;;41.78;29.70;;;;;;;;;;5032090;28;20071;-57
2022/10/12 07:00:15;;;;;;;48.75;32.10;;;;;;;;;;5031642;28;20049;-55
2022/10/12 07:02:41;;;;;;;42.13;30.23;;;;;;;;;;5031940;28;20380;-53
2022/10/12 07:05:08;;;;;;;41.88;30.48;;;;;;;;;;5031822;28;20612;-52
2022/10/12 07:07:35;;;;;;;45.13;31.23;;;;;;;;;;5031775;28;20017;-55
2022/10/12 07:10:01;;;;;;;48.00;31.35;;;;;;;;;;5031677;28;20025;-55
2022/10/12 07:12:27;;;;;;;45.33;30.83;;;;;;;;;;5031789;28;20232;-58
2022/10/12 07:14:53;;;;;;;49.22;33.83;;;;;;;;;;5031616;28;20048;-59
2022/10/12 07:17:20;;;;;;;45.35;31.83;;;;;;;;;;5031694;28;20022;-58
2022/10/12 07:19:46;;;;;;;41.80;31.50;;;;;;;;;;5031692;28;20094;-58
2022/10/12 07:22:12;;;;;;;44.07;30.37;;;;;;;;;;5030297;28;20048;-59
2022/10/12 07:24:38;;;;;;;44.25;31.17;;;;;;;;;;5031513;28;20574;-58
2022/10/12 07:27:06;;;;;;;45.50;32.45;;;;;;;;;;5031301;28;20034;-56
2022/10/12 07:29:32;;;;;;;47.15;33.65;;;;;;;;;;5031478;28;20021;-56
2022/10/12 07:31:59;;;;;;;46.42;33.53;;;;;;;;;;5030281;28;20033;-54
2022/10/12 07:34:25;;;;;;;53.67;35.25;;;;;;;;;;5031495;28;20083;-53
2022/10/12 07:36:51;;;;;;;47.05;35.30;;;;;;;;;;5030091;28;20036;-54
2022/10/12 07:39:18;;;;;;;46.20;34.47;;;;;;;;;;5031302;28;20053;-55
2022/10/12 07:41:44;;;;;;;46.95;33.83;;;;;;;;;;5033063;28;20040;-56
2022/10/12 07:44:11;;;;;;;51.87;33.50;;;;;;;;;;5035813;28;20518;-56
2022/10/12 07:46:37;;;;;;;53.70;35.25;;;;;;;;;;5035287;28;20412;-59
2022/10/12 07:49:03;;;;;;;49.10;34.83;;;;;;;;;;5035446;28;20049;-56
2022/10/12 07:51:30;;;;;;;47.28;33.88;;;;;;;;;;5035452;28;20029;-56
2022/10/12 07:53:56;;;;;;;45.22;33.53;;;;;;;;;;5035394;28;20029;-58
2022/10/12 07:56:22;;;;;;;49.70;34.35;;;;;;;;;;5035116;28;20021;-58
2022/10/12 07:58:49;;;;;;;48.78;34.97;;;;;;;;;;5034976;28;20026;-60
2022/10/12 08:01:15;;;;;;;;;;;;;;;;;;5035581;28;20380;-56
2022/10/12 08:03:41;;;;;;;47.80;32.80;;;;;;;;;;5033946;28;19909;-56
2022/10/12 08:06:08;;;;;;;47.08;33.35;;;;;;;;;;5035084;28;20025;-56
2022/10/12 08:08:34;;;;;;;;;;;;;;;;;;5035468;28;20032;-57
2022/10/12 08:11:01;;;;;;;44.40;31.90;;;;;;;;;;5035085;28;20088;-56
2022/10/12 08:13:27;;;;;;;41.83;28.58;;;;;;;;;;5035036;28;20025;-58
2022/10/12 08:15:53;;;;;;;44.85;29.20;;;;;;;;;;5034711;28;20039;-59
2022/10/12 08:18:19;;;;;;;41.97;29.15;;;;;;;;;;5033510;28;20220;-58
2022/10/12 08:20:45;;;;;;;42.10;27.55;;;;;;;;;;5034719;28;20383;-58
2022/10/12 08:23:11;;;;;;;44.30;28.95;;;;;;;;;;5034774;28;20075;-58
2022/10/12 08:25:37;;;;;;;41.45;29.05;;;;;;;;;;5034611;28;20033;-56
2022/10/12 08:28:03;;;;;;;44.05;27.40;;;;;;;;;;5034949;28;20025;-56
2022/10/12 08:30:29;;;;;;;45.30;26.48;;;;;;;;;;5034531;28;20049;-55
2022/10/12 08:32:55;;;;;;;43.87;26.27;;;;;;;;;;5034586;28;20029;-56
2022/10/12 08:35:22;;;;;;;40.80;26.70;;;;;;;;;;5034461;28;20049;-57
2022/10/12 08:37:48;;;;;;;42.05;25.45;;;;;;;;;;5034576;28;20025;-54
2022/10/12 08:40:34;;;;;;;37.83;27.05;;;;;;;;;;5034255;28;20028;-56
2022/10/12 08:43:15;;;;;;;39.72;26.77;;;;;;;;;;5034396;28;20032;-56
2022/10/12 08:45:47;;;;;;;32.83;24.00;;;;;;;;;;5034585;28;20040;-57
2022/10/12 08:48:16;;;;;;;32.83;24.27;;;;;;;;;;5034164;28;20022;-59
2022/10/12 08:50:48;;;;;;;31.55;23.08;;;;;;;;;;5034297;28;20021;-56
2022/10/12 08:53:18;;;;;;;36.70;27.02;;;;;;;;;;5033425;28;20043;-56
2022/10/12 08:55:45;;;;;;;38.40;23.48;;;;;;;;;;5034088;28;20025;-56
2022/10/12 08:58:19;;;;;;;29.90;22.92;;;;;;;;;;5033965;28;20021;-60
2022/10/12 09:00:47;;;;;;;30.90;22.65;;;;;;;;;;5034052;28;20075;-57
2022/10/12 09:03:33;;;;;;;31.98;21.85;;;;;;;;;;5033980;28;20037;-55
2022/10/12 09:06:09;;;;;;;30.13;21.40;;;;;;;;;;5033815;28;20108;-58
2022/10/12 09:08:38;;;;;;;32.03;20.48;;;;;;;;;;5033819;28;20100;-58
2022/10/12 09:11:13;;;;;;;28.23;19.65;;;;;;;;;;5033912;28;20033;-57
2022/10/12 09:13:45;;;;;;;29.15;20.13;;;;;;;;;;5033780;28;20408;-56
2022/10/12 09:16:25;;;;;;;26.10;17.60;;;;;;;;;;5033739;28;20455;-57
2022/10/12 09:19:11;;;;;;;30.20;18.50;;;;;;;;;;5033623;28;20025;-57
2022/10/12 09:21:39;;;;;;;31.65;18.73;;;;;;;;;;5026420;28;20041;-57
2022/10/12 09:24:06;;;;;;;23.33;18.10;;;;;;;;;;5033640;28;20436;-54
2022/10/12 09:26:36;;;;;;;23.10;16.42;;;;;;;;;;5033526;28;20083;-57
2022/10/12 09:29:13;;;;;;;26.27;16.23;;;;;;;;;;5033582;28;20028;-55
2022/10/12 09:31:48;;;;;;;28.02;17.10;;;;;;;;;;5033700;28;20026;-54
2022/10/12 09:34:14;;;;;;;27.35;16.65;;;;;;;;;;5033934;28;20533;-55
2022/10/12 09:36:41;;;;;;;19.60;14.88;;;;;;;;;;5033396;28;20029;-57
2022/10/12 09:39:12;;;;;;;24.13;15.90;;;16.20;80.70;;;;;;5033238;28;20395;-57
2022/10/12 09:41:40;;;;;;;28.92;18.17;;;;;;;;;;5033332;28;20036;-57
2022/10/12 09:44:07;;;;;;;22.23;15.25;;;;;;;;;;5033611;28;20037;-58
2022/10/12 09:46:42;;;;;;;26.08;16.98;;;;;;;;;;5033065;28;20036;-58
2022/10/12 09:49:08;;;;;;;34.63;19.20;;;;;;;;;;5033283;28;20040;-57
2022/10/12 09:51:34;;;;;;;23.93;16.20;;;;;;;;;;5033240;28;20025;-56
2022/10/12 09:54:02;;;;;;;29.95;17.33;;;;;;;;;;5033289;28;20091;-56
2022/10/12 09:56:43;;;;;;;21.92;15.18;;;;;;;;;;5032943;28;20076;-56
2022/10/12 09:59:28;;;;;;;19.23;14.13;;;;;;;;;;5032764;28;20083;-58
2022/10/12 10:02:14;;;;;;;20.02;15.05;;;;;;;;;;5032886;28;20033;-56
2022/10/12 10:04:41;;;;;;;21.23;13.80;;;;;;;;;;5032787;28;20090;-57
2022/10/12 10:07:19;;;;;;;23.02;13.90;;;;;;;;;;5032807;28;20109;-59
2022/10/12 10:09:45;;;;;;;18.92;13.60;;;;;;;;;;5032684;28;20063;-59
2022/10/12 10:12:23;;;;;;;30.25;15.00;;;;;;;;;;5032826;28;20037;-58
2022/10/12 10:14:53;;;;;;;22.52;13.25;;;;;;;;;;5032577;28;20514;-57
2022/10/12 10:17:23;;;;;;;22.67;13.23;;;;;;;;;;5032700;28;20064;-55
2022/10/12 10:19:50;;;;;;;18.08;11.48;;;;;;;;;;5032392;28;20026;-57
2022/10/12 10:22:16;;;;;;;18.15;11.20;;;;;;;;;;5028841;28;20395;-58
2022/10/12 10:24:42;;;;;;;18.80;10.93;;;;;;;;;;5032471;28;20107;-56
2022/10/12 10:27:26;;;;;;;18.37;10.43;;;;;;;;;;5029495;28;20091;-53
2022/10/12 10:29:52;;;;;;;19.40;10.60;;;;;;;;;;5012520;28;20026;-58
2022/10/12 10:32:28;;;;;;;20.93;11.67;;;;;;;;;;5029943;28;20382;-58
2022/10/12 10:35:17;;;;;;;18.73;12.13;;;;;;;;;;5032564;28;20034;-57
2022/10/12 10:37:45;;;;;;;21.33;12.05;;;;;;;;;;5034670;28;20048;-56
2022/10/12 10:40:17;;;;;;;26.90;12.73;;;;;;;;;;5031039;28;20034;-57
2022/10/12 10:42:48;;;;;;;23.95;12.52;;;;;;;;;;5028863;28;20096;-56
2022/10/12 10:45:22;;;;;;;16.85;11.77;;;;;;;;;;5031577;28;20025;-57
2022/10/12 10:47:48;;;;;;;20.30;12.25;;;;;;;;;;5033180;28;20021;-59
2022/10/12 10:50:26;;;;;;;23.23;13.60;;;;;;;;;;5031154;28;20025;-56
2022/10/12 10:52:57;;;;;;;23.38;13.07;;;;;;;;;;5030738;28;20037;-58
2022/10/12 10:55:26;;;;;;;19.48;11.32;;;;;;;;;;5031899;28;20071;-57
2022/10/12 10:58:02;;;;;;;19.00;11.45;;;;;;;;;;5031581;28;20025;-56
2022/10/12 11:00:30;;;;;;;19.70;11.60;;;;;;;;;;5030428;28;20029;-57
2022/10/12 11:02:57;;;;;;;23.25;12.82;;;;;;;;;;5030122;28;20026;-57
2022/10/12 11:05:23;;;;;;;;;;;;;;;;;;5031644;28;20021;-56
2022/10/12 11:07:50;;;;;;;22.50;11.65;;;;;;;;;;5030578;28;19959;-55
2022/10/12 11:10:35;;;;;;;20.17;13.05;;;;;;;;;;5030422;28;20048;-58
2022/10/12 11:13:14;;;;;;;21.52;12.73;;;;;;;;;;5031198;28;20033;-56
2022/10/12 11:15:55;;;;;;;18.80;12.82;;;20.20;68.70;;;;;;5029257;28;20029;-56
2022/10/12 11:18:27;;;;;;;29.92;13.98;;;;;;;;;;5033253;28;20032;-56
2022/10/12 11:21:02;;;;;;;24.35;14.07;;;22.20;65.30;;;;;;5038461;28;20036;-59
2022/10/12 11:23:49;;;;;;;19.55;12.77;;;22.20;62.70;;;;;;5032764;28;20072;-56
2022/10/12 11:26:35;;;;;;;21.63;14.13;;;22.30;63.70;;;;;;5030315;28;20100;-56
2022/10/12 11:29:01;;;;;;;20.55;13.38;;;;;;;;;;5017021;28;20369;-60
2022/10/12 11:31:38;;;;;;;26.53;14.47;;;22.40;63.60;;;;;;5030992;28;20026;-56
2022/10/12 11:34:08;;;;;;;27.38;14.75;;;;;;;;;;5031026;28;20064;-58
2022/10/12 11:36:38;;;;;;;19.52;14.45;;;22.70;63.00;;;;;;5031325;28;20495;-58
2022/10/12 11:39:29;;;;;;;24.73;14.25;;;22.70;62.80;;;;;;5031240;28;20037;-56
2022/10/12 11:41:58;;;;;;;18.10;11.80;;;22.80;62.10;;;;;;5031177;28;20030;-57
2022/10/12 11:44:36;;;;;;;19.92;13.07;;;;;;;;;;5030888;28;20022;-57
2022/10/12 11:47:21;;;;;;;26.80;14.98;;;22.90;61.50;;;;;;5014209;28;20056;-57
2022/10/12 11:50:04;;;;;;;25.50;14.35;;;23.10;60.60;;;;;;5030718;28;20526;-58
2022/10/12 11:52:42;;;;;;;22.40;12.65;;;;;;;;;;5031481;28;20484;-55
2022/10/12 11:55:27;;;;;;;21.02;13.55;;;;;;;;;;5031165;28;20017;-58
2022/10/12 11:57:54;;;;;;;19.55;12.38;;;;;;;;;;5031130;28;20036;-58
2022/10/12 12:00:23;;;;;;;21.80;13.27;;;;;;;;;;5030548;28;20065;-56
2022/10/12 12:03:01;;;;;;;16.50;11.52;;;23.10;60.40;;;;;;5031210;28;20503;-59
2022/10/12 12:05:31;;;;;;;17.13;12.10;;;23.40;59.60;;;;;;5029218;28;20035;-56
2022/10/12 12:07:57;;;;;;;19.10;12.60;;;;;;;;;;5031170;28;20443;-57
2022/10/12 12:10:36;;;;;;;16.97;11.73;;;;;;;;;;5029339;28;20106;-59
2022/10/12 12:13:16;;;;;;;30.10;13.35;;;;;;;;;;5031223;28;20665;-56
2022/10/12 12:15:48;;;;;;;20.25;12.38;;;;;;;;;;5031098;28;20029;-56
2022/10/12 12:18:25;;;;;;;25.85;14.07;;;;;;;;;;5030888;28;20083;-58
2022/10/12 12:21:07;;;;;;;18.53;12.93;;;;;;;;;;5013811;28;20033;-58
2022/10/12 12:23:39;;;;;;;20.65;12.75;;;;;;;;;;5030821;28;20029;-59
2022/10/12 12:26:10;;;;;;;22.45;12.98;;;;;;;;;;5030892;28;20037;-56
2022/10/12 12:28:38;;;;;;;19.65;13.45;;;;;;;;;;5032152;28;20028;-59
2022/10/12 12:31:11;;;;;;;17.00;12.20;;;;;;;;;;5034251;28;20044;-58
2022/10/12 12:33:41;;;;;;;19.05;13.18;;;;;;;;;;5032731;28;20116;-57
2022/10/12 12:36:30;;;;;;;22.98;13.30;;;;;;;;;;5033062;28;20029;-56
2022/10/12 12:38:56;;;;;;;21.42;14.80;;;;;;;;;;5028853;28;20041;-57
2022/10/12 12:41:27;;;;;;;20.30;12.33;;;;;;;;;;5034063;28;20083;-58
2022/10/12 12:43:53;;;;;;;22.67;13.25;;;;;;;;;;5034398;28;20116;-58
2022/10/12 12:46:20;;;;;;;23.75;13.52;;;;;;;;;;5033948;28;20041;-57
2022/10/12 12:48:46;;;;;;;21.17;12.70;;;;;;;;;;5034235;28;20022;-59
2022/10/12 12:51:14;;;;;;;23.35;12.73;;;;;;;;;;5034159;28;20488;-57
2022/10/12 12:53:55;;;;;;;25.10;13.20;;;;;;;;;;5033919;28;20557;-59
2022/10/12 12:56:40;;;;;;;18.60;13.63;;;;;;;;;;5034002;28;20025;-56
2022/10/12 12:59:12;;;;;;;16.30;12.77;;;;;;;;;;5033859;28;20031;-57
2022/10/12 13:01:45;;;;;;;19.95;12.80;;;;;;;;;;5032148;28;20148;-58
2022/10/12 13:04:20;;;;;;;22.27;12.05;;;;;;;;;;5034050;28;20076;-58
2022/10/12 13:07:04;;;;;;;28.67;12.95;;;;;;;;;;5034072;28;20096;-58
2022/10/12 13:09:30;;;;;;;21.25;11.98;;;;;;;;;;5033718;28;20029;-58
2022/10/12 13:12:14;;;;;;;25.73;14.57;;;;;;;;;;5033269;28;20060;-57
2022/10/12 13:14:51;;;;;;;21.40;12.75;;;;;;;;;;5033668;28;20431;-59
2022/10/12 13:17:36;;;;;;;19.27;12.13;;;;;;;;;;5045273;28;20116;-60
2022/10/12 13:20:06;;;;;;;16.23;10.75;;;;;;;;;;5036177;28;20101;-58
2022/10/12 13:22:33;;;;;;;18.75;10.18;;;;;;;;;;5031847;28;20031;-58
2022/10/12 13:25:01;;;;;;;19.30;9.38;;;;;;;;;;5013816;28;20033;-58
2022/10/12 13:27:38;;;;;;;15.48;9.95;;;23.50;59.10;;;;;;5013767;28;20481;-58
2022/10/12 13:30:10;;;;;;;17.13;10.40;;;26.50;47.60;;;;;;5023631;28;20442;-60
2022/10/12 13:32:54;;;;;;;17.08;10.07;;;26.50;48.80;;;;;;5033524;28;20400;-60
2022/10/12 13:35:26;;;;;;;19.90;9.60;;;26.70;49.30;;;;;;5033146;28;20488;-59
2022/10/12 13:38:13;;;;;;;15.13;9.98;;;27.00;48.60;;;;;;5031922;28;20683;-59
2022/10/12 13:41:06;;;;;;;20.20;9.13;;;27.10;47.80;;;;;;5033941;28;20030;-59
2022/10/12 13:43:56;;;;;;;20.58;10.55;;;27.10;47.20;;;;;;5035251;28;20030;-59
2022/10/12 13:46:43;;;;;;;14.98;10.68;;;27.20;45.90;;;;;;5031768;28;20044;-58
2022/10/12 13:49:19;;;;;;;17.85;12.05;;;26.90;46.00;;;;;;5029426;28;20037;-61
2022/10/12 13:51:48;;;;;;;16.85;11.00;;;27.10;46.60;;;;;;5023544;28;20018;-59
2022/10/12 13:54:17;;;;;;;15.43;9.45;;;27.10;46.40;;;;;;5020697;28;20091;-59
2022/10/12 13:56:45;;;;;;;21.25;11.55;;;27.00;46.60;;;;;;5032898;28;20491;-59
2022/10/12 13:59:17;;;;;;;22.83;11.75;;;26.90;47.80;;;;;;5032887;28;20029;-61
2022/10/12 14:02:01;;;;;;;22.00;10.88;;;26.80;48.70;;;;;;5032980;28;20157;-61
2022/10/12 14:04:33;;;;;;;15.93;9.95;;;26.60;47.40;;;;;;5019053;28;20025;-61
2022/10/12 14:07:05;;;;;;;27.15;11.00;;;26.50;47.40;;;;;;5011686;28;20026;-61
2022/10/12 14:09:50;;;;;;;14.68;10.35;;;26.30;47.80;;;;;;5020937;28;20526;-61
2022/10/12 14:12:17;;;;;;;17.38;10.57;;;26.10;47.30;;;;;;5031592;28;20438;-61
2022/10/12 14:14:45;;;;;;;20.30;10.93;;;26.00;48.40;;;;;;5032678;28;20033;-61
2022/10/12 14:17:15;;;;;;;25.02;10.82;;;26.20;48.80;;;;;;5030093;28;20036;-61
2022/10/12 14:19:41;;;;;;;24.77;10.77;;;26.20;47.40;;;;;;5031881;28;20040;-61
2022/10/12 14:22:08;;;;;;;21.98;10.45;;;26.20;47.60;;;;;;5031806;28;20060;-60